Time;durP1;ratioP1;P1;durP2;ratioP2;P2;SDS_P1;SDS_P2;PMS_P1;PMS_P2;Temp;Humidity;BMP_temperature;BMP_pressure;BME280_temperature;BME280_humidity;BME280_pressure;Samples;Min_cycle;Max_cycle;Signal;HPM_P1;HPM_P2
2023/04/09 00:00:10;;;;;;;16.03;12.30;;;;;;;6.30;100.00;98844.09;5071004;28;20210;-82
2023/04/09 00:02:36;;;;;;;13.70;11.67;;;;;;;6.29;100.00;98841.56;5071728;28;20228;-82
2023/04/09 00:05:03;;;;;;;13.53;11.43;;;;;;;6.28;100.00;98842.47;5071704;28;20208;-82
2023/04/09 00:07:31;;;;;;;14.53;11.83;;;;;;;6.26;100.00;98836.41;5071911;28;20291;-82
2023/04/09 00:09:58;;;;;;;14.87;12.53;;;;;;;6.23;100.00;98842.66;5070722;28;20681;-82
2023/04/09 00:12:24;;;;;;;16.57;12.93;;;;;;;6.21;100.00;98841.88;5071216;28;20229;-82
2023/04/09 00:14:51;;;;;;;14.37;12.57;;;;;;;6.22;100.00;98842.72;5071441;28;20207;-82
2023/04/09 00:17:17;;;;;;;17.40;13.40;;;;;;;6.19;100.00;98833.22;5071794;28;20217;-82
2023/04/09 00:19:44;;;;;;;16.67;13.30;;;;;;;6.24;100.00;98849.59;5070900;28;20561;-82
2023/04/09 00:22:10;;;;;;;17.47;13.87;;;;;;;6.37;100.00;98849.97;5071391;28;20235;-82
2023/04/09 00:24:38;;;;;;;17.23;14.30;;;;;;;6.42;100.00;98838.34;5071186;28;20212;-82
2023/04/09 00:27:05;;;;;;;16.63;14.27;;;;;;;6.53;100.00;98841.38;5071160;28;20216;-82
2023/04/09 00:29:31;;;;;;;17.47;14.03;;;;;;;6.60;100.00;98834.94;5070234;28;20208;-82
2023/04/09 00:31:58;;;;;;;16.10;13.20;;;;;;;6.66;100.00;98837.31;5070736;28;20259;-82
2023/04/09 00:34:25;;;;;;;16.77;13.10;;;;;;;6.66;100.00;98837.31;5071243;28;20564;-82
2023/04/09 00:36:51;;;;;;;15.40;13.37;;;;;;;6.67;100.00;98828.53;5071048;28;20213;-82
2023/04/09 00:39:17;;;;;;;15.10;12.20;;;;;;;6.72;100.00;98831.81;5070257;28;20218;-82
2023/04/09 00:41:45;;;;;;;16.57;13.23;;;;;;;6.77;100.00;98835.09;5070876;28;20241;-81
2023/04/09 00:44:12;;;;;;;15.97;12.80;;;;;;;6.76;100.00;98832.53;5070828;28;20585;-82
2023/04/09 00:46:38;;;;;;;16.63;12.30;;;;;;;6.76;100.00;98827.28;5071400;28;20290;-82
2023/04/09 00:49:05;;;;;;;15.70;12.70;;;;;;;6.76;100.00;98827.28;5070950;28;20583;-81
2023/04/09 00:51:32;;;;;;;15.60;12.80;;;;;;;6.79;100.00;98833.25;5070680;28;20238;-81
2023/04/09 00:53:58;;;;;;;15.10;13.07;;;;;;;6.74;100.00;98824.72;5071195;28;20213;-81
2023/04/09 00:56:26;;;;;;;14.87;12.83;;;;;;;6.76;100.00;98827.28;5071090;28;20213;-81
2023/04/09 00:58:54;;;;;;;16.17;13.60;;;;;;;6.74;100.00;98832.63;5070312;28;20219;-82
2023/04/09 01:01:20;;;;;;;14.80;12.43;;;;;;;6.74;100.00;98835.25;5070820;28;20297;-81
2023/04/09 01:03:47;;;;;;;15.40;13.10;;;;;;;6.74;100.00;98830.00;5073258;28;20213;-82
2023/04/09 01:06:22;;;;;;;15.37;12.57;;;;;;;6.72;100.00;98826.56;5074880;28;20212;-81
2023/04/09 01:08:56;;;;;;;16.03;12.87;;;;;;;6.71;100.00;98824.84;5075060;28;20548;-82
2023/04/09 01:11:31;;;;;;;14.47;12.23;;;;;;;6.70;100.00;98833.66;5074156;28;20243;-81
2023/04/09 01:14:06;;;;;;;14.77;13.03;;;;;;;6.69;100.00;98831.94;5074992;28;20212;-81
2023/04/09 01:16:35;;;;;;;15.97;12.43;;;;;;;6.65;100.00;98827.75;5074798;28;20209;-82
2023/04/09 01:19:10;;;;;;;16.20;13.00;;;;;;;6.66;100.00;98816.31;5074558;28;20212;-82
2023/04/09 01:21:40;;;;;;;16.10;12.57;;;;;;;6.63;100.00;98819.09;5074492;28;20228;-82
2023/04/09 01:24:19;;;;;;;16.47;12.97;;;;;;;6.63;100.00;98826.09;5074941;28;20207;-82
2023/04/09 01:27:02;;;;;;;16.37;13.37;;;;;;;6.72;100.00;98826.56;5074390;28;20206;-81
2023/04/09 01:29:34;;;;;;;15.40;13.17;;;;;;;6.70;100.00;98820.53;5073552;28;20212;-82
2023/04/09 01:32:02;;;;;;;15.90;12.67;;;;;;;6.67;100.00;98825.91;5074230;28;20235;-81
2023/04/09 01:34:30;;;;;;;15.47;12.83;;;;;;;6.67;100.00;98828.53;5074556;28;20208;-82
2023/04/09 01:36:59;;;;;;;16.40;12.87;;;;;;;6.69;100.00;98825.84;5074410;28;20214;-82
2023/04/09 01:39:26;;;;;;;15.03;11.80;;;;;;;6.67;100.00;98823.28;5073371;28;20301;-81
2023/04/09 01:41:55;;;;;;;16.37;11.40;;;;;;;6.67;100.00;98817.19;5074133;28;20232;-82
2023/04/09 01:44:24;;;;;;;15.20;11.80;;;;;;;6.70;100.00;98828.41;5074551;28;20311;-81
2023/04/09 01:46:54;;;;;;;15.80;12.30;;;;;;;6.73;100.00;98830.03;5074017;28;20674;-81
2023/04/09 01:49:22;;;;;;;14.33;11.23;;;;;;;6.73;100.00;98832.66;5073405;28;20210;-82
2023/04/09 01:51:48;;;;;;;15.83;11.80;;;;;;;6.77;100.00;98827.22;5073891;28;20322;-81
2023/04/09 01:54:16;;;;;;;14.30;12.23;;;;;;;6.78;100.00;98828.91;5074068;28;20216;-81
2023/04/09 01:56:43;;;;;;;16.87;13.20;;;;;;;6.69;100.00;98829.31;5073904;28;20216;-81
2023/04/09 01:59:10;;;;;;;14.17;11.63;;;;;;;6.59;100.00;98825.38;5073574;28;20211;-81
2023/04/09 02:01:41;;;;;;;14.50;11.93;;;;;;;6.57;100.00;98829.84;5073857;28;20292;-81
2023/04/09 02:04:13;;;;;;;13.87;12.37;;;;;;;6.47;100.00;98825.88;5074109;28;20222;-81
2023/04/09 02:06:44;;;;;;;15.83;12.77;;;;;;;6.40;100.00;98834.94;5073883;28;20565;-81
2023/04/09 02:09:12;;;;;;;15.03;12.67;;;;;;;6.35;100.00;98826.41;5072886;28;20673;-81
2023/04/09 02:11:42;;;;;;;16.70;13.10;;;;;;;6.31;100.00;98832.72;5086174;22;20234;-81
2023/04/09 02:14:10;;;;;;;15.50;12.70;;;;;;;6.30;100.00;98830.13;5073259;28;20223;-81
2023/04/09 02:16:38;;;;;;;15.07;13.20;;;;;;;6.28;100.00;98832.81;5073877;28;20215;-81
2023/04/09 02:19:04;;;;;;;16.20;13.37;;;;;;;6.25;100.00;98825.09;5073558;28;20231;-81
2023/04/09 02:21:32;;;;;;;16.07;12.87;;;;;;;6.29;100.00;98829.28;5073131;28;20258;-81
2023/04/09 02:23:59;;;;;;;16.03;12.70;;;;;;;6.31;100.00;98821.34;5073607;28;20220;-81
2023/04/09 02:26:26;;;;;;;16.57;13.40;;;;;;;6.35;100.00;98829.03;5073586;28;20215;-82
2023/04/09 02:28:52;;;;;;;16.50;13.53;;;;;;;6.29;100.00;98820.56;5073549;28;20211;-80
2023/04/09 02:31:18;;;;;;;14.70;12.17;;;;;;;6.30;100.00;98823.09;5072873;28;20215;-81
2023/04/09 02:33:45;;;;;;;16.73;12.63;;;;;;;6.24;100.00;98820.72;5073183;28;20254;-81
2023/04/09 02:36:12;;;;;;;14.40;12.63;;;;;;;6.17;100.00;98821.06;5073302;28;20207;-81
2023/04/09 02:38:41;;;;;;;15.63;12.23;;;;;;;6.10;100.00;98819.59;5073201;28;20209;-80
2023/04/09 02:41:08;;;;;;;15.00;12.30;;;;;;;6.03;100.00;98826.00;5072741;28;20205;-81
2023/04/09 02:43:34;;;;;;;15.20;12.13;;;;;;;5.99;100.00;98827.06;5073343;28;20230;-80
2023/04/09 02:46:01;;;;;;;16.20;13.03;;;;;;;5.89;100.00;98823.94;5073389;28;20561;-81
2023/04/09 02:48:27;;;;;;;15.67;12.87;;;;;;;5.79;100.00;98830.41;5073303;28;20208;-81
2023/04/09 02:50:54;;;;;;;15.47;12.43;;;;;;;5.71;100.00;98819.38;5072445;28;20236;-81
2023/04/09 02:53:21;;;;;;;14.50;11.80;;;;;;;5.65;100.00;98822.25;5072901;28;20229;-81
2023/04/09 02:55:49;;;;;;;16.17;12.77;;;;;;;5.58;100.00;98819.91;5073283;28;20238;-81
2023/04/09 02:58:15;;;;;;;15.40;12.37;;;;;;;5.54;100.00;98823.56;5073180;28;20204;-80
2023/04/09 03:00:42;;;;;;;16.00;13.17;;;;;;;5.54;100.00;98824.41;5072254;28;20214;-81
2023/04/09 03:03:08;;;;;;;14.87;12.13;;;;;;;5.56;100.00;98827.81;5072976;28;20225;-80
2023/04/09 03:05:35;;;;;;;14.33;11.90;;;;;;;5.56;100.00;98817.34;5072918;28;20222;-80
2023/04/09 03:08:01;;;;;;;15.97;12.60;;;;;;;5.56;100.00;98812.09;5072756;28;20222;-80
2023/04/09 03:10:28;;;;;;;17.33;13.40;;;;;;;5.62;100.00;98806.63;5071894;28;20209;-80
2023/04/09 03:12:56;;;;;;;15.10;12.53;;;;;;;5.68;100.00;98810.78;5072563;28;20251;-79
2023/04/09 03:15:22;;;;;;;15.70;13.07;;;;;;;5.69;100.00;98810.69;5072789;28;20208;-80
2023/04/09 03:17:49;;;;;;;17.27;11.97;;;;;;;5.72;100.00;98807.97;5072854;28;20239;-80
2023/04/09 03:20:15;;;;;;;14.23;12.00;;;;;;;5.79;100.00;98811.19;5071750;28;20215;-80
2023/04/09 03:22:42;;;;;;;15.43;12.13;;;;;;;5.88;100.00;98810.88;5072022;28;20260;-80
2023/04/09 03:25:09;;;;;;;16.43;12.20;;;;;;;5.97;100.00;98806.13;5072314;28;20221;-81
2023/04/09 03:27:36;;;;;;;15.17;12.60;;;;;;;6.06;100.00;98808.38;5072629;28;20207;-81
2023/04/09 03:30:04;;;;;;;16.57;13.03;;;;;;;6.04;100.00;98802.31;5071812;28;20613;-81
2023/04/09 03:32:31;;;;;;;15.50;13.00;;;;;;;6.01;100.00;98799.84;5072271;28;20232;-80
2023/04/09 03:34:57;;;;;;;16.70;12.97;;;;;;;6.03;100.00;98803.25;5072207;28;20214;-81
2023/04/09 03:37:24;;;;;;;15.00;11.87;;;;;;;5.95;100.00;98807.97;5072386;28;20211;-80
2023/04/09 03:39:50;;;;;;;16.27;11.50;;;;;;;5.92;100.00;98799.34;5071565;28;20205;-80
2023/04/09 03:42:17;;;;;;;13.87;11.53;;;;;;;5.89;100.00;98812.59;5072313;28;20224;-80
2023/04/09 03:44:43;;;;;;;17.77;12.73;;;;;;;5.86;100.00;98805.69;5080148;28;20208;-80
2023/04/09 03:47:11;;;;;;;15.37;12.03;;;;;;;5.85;100.00;98808.38;5091309;28;20197;-81
2023/04/09 03:49:38;;;;;;;15.53;12.47;;;;;;;5.82;100.00;98801.50;5090030;28;20215;-80
2023/04/09 03:52:06;;;;;;;14.43;12.07;;;;;;;5.82;100.00;98809.38;5077669;28;20240;-81
2023/04/09 03:54:32;;;;;;;13.10;11.03;;;;;;;5.82;100.00;98809.38;5072047;28;20205;-81
2023/04/09 03:57:00;;;;;;;16.17;11.93;;;;;;;5.83;100.00;98803.19;5071748;28;20671;-81
2023/04/09 03:59:26;;;;;;;16.73;11.93;;;;;;;5.83;100.00;98810.19;5071685;28;20209;-81
2023/04/09 04:01:53;;;;;;;15.73;12.27;;;;;;;5.79;100.00;98804.19;5071693;28;20228;-80
2023/04/09 04:04:21;;;;;;;16.47;12.50;;;;;;;5.80;100.00;98805.94;5071764;28;20220;-81
2023/04/09 04:06:47;;;;;;;15.67;12.43;;;;;;;5.81;100.00;98812.03;5071586;28;20211;-81
2023/04/09 04:09:14;;;;;;;15.33;12.07;;;;;;;5.76;100.00;98799.09;5070860;28;20216;-81
2023/04/09 04:11:40;;;;;;;15.53;11.93;;;;;;;5.71;100.00;98801.03;5071422;28;20218;-80
2023/04/09 04:14:07;;;;;;;15.83;12.23;;;;;;;5.70;100.00;98804.56;5071426;28;20223;-81
2023/04/09 04:16:33;;;;;;;13.20;11.10;;;;;;;5.68;100.00;98811.63;5071470;28;20207;-80
2023/04/09 04:19:00;;;;;;;15.90;12.60;;;;;;;5.68;100.00;98808.16;5071813;28;20208;-81
2023/04/09 04:21:28;;;;;;;15.73;11.77;;;;;;;5.75;100.00;98812.25;5070796;28;20670;-80
2023/04/09 04:23:54;;;;;;;15.10;12.07;;;;;;;5.74;100.00;98815.78;5071613;28;20201;-81
2023/04/09 04:26:20;;;;;;;15.17;11.57;;;;;;;5.75;100.00;98813.09;5071844;28;20392;-81
2023/04/09 04:28:47;;;;;;;15.90;12.07;;;;;;;5.78;100.00;98818.22;5071368;28;20209;-81
2023/04/09 04:31:13;;;;;;;16.37;11.70;;;;;;;5.78;100.00;98819.97;5070198;28;20220;-81
2023/04/09 04:33:41;;;;;;;15.60;11.30;;;;;;;5.82;100.00;98824.25;5071162;28;20243;-81
2023/04/09 04:36:10;;;;;;;14.83;11.77;;;;;;;5.90;100.00;98827.41;5071137;28;20232;-81
2023/04/09 04:38:38;;;;;;;16.20;12.17;;;;;;;5.89;100.00;98817.81;5071297;28;20207;-81
2023/04/09 04:41:05;;;;;;;16.40;12.13;;;;;;;5.88;100.00;98829.25;5070529;28;20216;-80
2023/04/09 04:43:32;;;;;;;13.93;11.17;;;;;;;5.87;100.00;98828.38;5071066;28;20718;-81
2023/04/09 04:45:58;;;;;;;16.83;12.00;;;;;;;5.94;100.00;98831.63;5071244;28;20221;-81
2023/04/09 04:48:26;;;;;;;16.10;12.07;;;;;;;6.02;100.00;98822.53;5071205;28;20673;-81
2023/04/09 04:50:57;;;;;;;14.80;12.37;;;;;;;6.07;100.00;98820.59;5070614;28;20208;-81
2023/04/09 04:53:24;;;;;;;14.33;12.00;;;;;;;6.10;100.00;98830.94;5071052;28;20599;-80
2023/04/09 04:55:52;;;;;;;15.77;11.63;;;;;;;6.09;100.00;98829.25;5071014;28;20203;-80
2023/04/09 04:58:18;;;;;;;16.03;11.97;;;;;;;6.08;100.00;98816.16;5071022;28;20211;-81
2023/04/09 05:00:45;;;;;;;14.07;11.03;;;;;;;6.13;100.00;98830.84;5070375;28;20205;-80
2023/04/09 05:03:12;;;;;;;14.73;11.67;;;;;;;6.13;100.00;98824.72;5071091;28;20220;-80
2023/04/09 05:05:38;;;;;;;15.50;11.67;;;;;;;6.15;100.00;98831.63;5071099;28;20217;-81
2023/04/09 05:08:05;;;;;;;13.23;11.17;;;;;;;6.16;100.00;98830.69;5071132;28;20209;-81
2023/04/09 05:10:32;;;;;;;13.67;11.37;;;;;;;6.14;100.00;98827.28;5070396;28;20217;-81
2023/04/09 05:13:00;;;;;;;13.97;10.93;;;;;;;6.10;100.00;98830.09;5070704;28;20231;-80
2023/04/09 05:15:26;;;;;;;14.83;11.67;;;;;;;6.08;100.00;98827.53;5071247;28;20234;-81
2023/04/09 05:17:53;;;;;;;15.03;11.20;;;;;;;6.06;100.00;98834.63;5071250;28;20221;-80
2023/04/09 05:20:19;;;;;;;13.83;11.00;;;;;;;6.06;100.00;98824.13;5070164;28;20679;-81
2023/04/09 05:22:46;;;;;;;14.47;11.97;;;;;;;6.08;100.00;98835.41;5070847;28;20319;-80
2023/04/09 05:25:14;;;;;;;15.83;11.50;;;;;;;6.13;100.00;98836.09;5070764;28;20212;-81
2023/04/09 05:27:41;;;;;;;14.17;11.57;;;;;;;6.16;100.00;98833.31;5071130;28;20237;-81
2023/04/09 05:30:10;;;;;;;16.23;12.73;;;;;;;6.20;100.00;98840.16;5070015;28;20702;-80
2023/04/09 05:32:36;;;;;;;15.00;11.33;;;;;;;6.25;100.00;98840.84;5070679;28;20232;-80
2023/04/09 05:35:03;;;;;;;13.70;11.53;;;;;;;6.31;100.00;98839.72;5071050;28;20230;-81
2023/04/09 05:37:30;;;;;;;13.77;11.50;;;;;;;6.31;100.00;98832.72;5071101;28;20215;-81
2023/04/09 05:39:56;;;;;;;16.90;11.77;;;;;;;6.35;100.00;98831.66;5069859;28;20216;-81
2023/04/09 05:42:23;;;;;;;13.57;10.97;;;;;;;6.32;100.00;98836.16;5070847;28;20276;-81
2023/04/09 05:44:49;;;;;;;14.77;12.00;;;;;;;6.34;100.00;98843.06;5070560;28;20214;-81
2023/04/09 05:47:17;;;;;;;14.23;11.13;;;;;;;6.38;100.00;98836.78;5072742;28;20249;-81
2023/04/09 05:49:44;;;;;;;15.17;12.03;;;;;;;6.43;100.00;98840.09;5073632;28;20684;-80
2023/04/09 05:52:10;;;;;;;14.00;10.80;;;;;;;6.51;100.00;98840.59;5074259;28;20235;-80
2023/04/09 05:54:36;;;;;;;16.17;11.77;;;;;;;6.58;100.00;98843.81;5074104;28;20228;-81
2023/04/09 05:57:03;;;;;;;14.73;11.50;;;;;;;6.63;100.00;98832.22;5074250;28;20573;-81
2023/04/09 05:59:30;;;;;;;13.37;11.03;;;;;;;6.67;100.00;98839.06;5073491;28;20211;-81
2023/04/09 06:01:56;;;;;;;13.10;10.47;;;;;;;6.69;100.00;98834.56;5073933;28;20231;-80
2023/04/09 06:04:24;;;;;;;14.23;11.23;;;;;;;6.75;100.00;98834.31;5074133;28;20207;-81
2023/04/09 06:06:50;;;;;;;14.40;11.17;;;;;;;6.84;100.00;98840.94;5074111;28;20213;-81
2023/04/09 06:09:17;;;;;;;13.80;11.57;;;;;;;6.96;100.00;98846.50;5073144;28;20212;-82
2023/04/09 06:11:43;;;;;;;13.90;11.43;;;;;;;7.05;100.00;98840.88;5073943;28;20214;-80
2023/04/09 06:14:15;;;;;;;13.87;11.33;;;;;;;7.16;100.00;98841.25;5073838;28;20224;-80
2023/04/09 06:16:41;;;;;;;13.60;10.77;;;;;;;7.35;100.00;98840.34;5073888;28;20548;-79
2023/04/09 06:19:08;;;;;;;14.82;12.07;;;;;;;7.60;100.00;98840.09;5072708;28;20445;-79
2023/04/09 06:21:36;;;;;;;13.80;10.90;;;;;;;7.90;100.00;98836.03;5073404;28;20214;-78
2023/04/09 06:24:02;;;;;;;15.23;11.67;;;;;;;8.16;100.00;98840.91;5073569;28;20204;-75
2023/04/09 06:26:29;;;;;;;13.97;11.27;;;;;;;8.37;100.00;98839.88;5073822;28;20224;-79
2023/04/09 06:28:55;;;;;;;14.07;10.83;;;;;;;8.48;100.00;98832.28;5073613;28;20245;-81
2023/04/09 06:31:22;;;;;;;12.63;10.27;;;;;;;8.50;100.00;98830.47;5072909;28;20604;-77
2023/04/09 06:33:49;;;;;;;14.37;11.40;;;;;;;8.50;100.00;98841.00;5073320;28;20234;-80
2023/04/09 06:36:15;;;;;;;16.03;11.77;;;;;;;8.51;100.00;98829.53;5073411;28;20208;-75
2023/04/09 06:38:43;;;;;;;14.30;11.20;;;;;;;8.55;100.00;98826.66;5073572;28;20211;-79
2023/04/09 06:41:11;;;;;;;14.17;10.57;;;;;;;8.54;100.00;98827.59;5072844;28;20213;-81
2023/04/09 06:43:38;;;;;;;12.83;10.43;;;;;;;8.58;100.00;98828.28;5073326;28;20265;-80
2023/04/09 06:46:04;;;;;;;13.97;11.17;;;;;;;8.60;100.00;98834.31;5073356;28;20211;-81
2023/04/09 06:48:31;;;;;;;13.53;11.27;;;;;;;8.58;100.00;98839.66;5073358;28;20697;-79
2023/04/09 06:50:57;;;;;;;12.53;10.17;;;;;;;8.74;100.00;98842.38;5072460;28;20210;-79
2023/04/09 06:53:24;;;;;;;12.33;9.50;;;;;;;8.76;100.00;98830.00;5073023;28;20241;-78
2023/04/09 06:55:52;;;;;;;12.93;10.00;;;;;;;8.94;98.21;98831.69;5073380;28;20581;-80
2023/04/09 06:58:19;;;;;;;13.97;10.33;;;;;;;9.08;96.97;98830.03;5073105;28;20208;-80
2023/04/09 07:00:46;;;;;;;12.63;9.67;;;;;;;9.19;92.97;98826.84;5072771;28;20261;-80
2023/04/09 07:03:12;;;;;;;14.13;11.17;;;;;;;9.26;91.96;98823.81;5073075;28;20251;-78
2023/04/09 07:05:39;;;;;;;12.20;9.67;;;;;;;9.33;89.08;98824.31;5075604;28;20226;-81
2023/04/09 07:08:06;;;;;;;12.00;9.77;;;;;;;9.38;90.13;98827.56;5097500;28;20202;-78
2023/04/09 07:10:32;;;;;;;12.13;9.80;;;;;;;9.40;90.31;98825.69;5094014;28;20298;-81
2023/04/09 07:13:13;;;;;;;12.83;9.70;;;;;;;9.51;89.88;98828.59;5088348;28;20234;-79
2023/04/09 07:15:39;;;;;;;11.47;8.73;;;;;;;9.52;86.74;98814.47;5072659;28;20636;-80
2023/04/09 07:18:06;;;;;;;11.90;9.07;;;;;;;9.63;87.73;98817.38;5072721;28;20242;-80
2023/04/09 07:20:33;;;;;;;11.83;8.97;;;;;;;9.66;86.00;98819.88;5072363;28;20214;-78
2023/04/09 07:23:00;;;;;;;11.25;9.90;;;;;;;9.74;86.82;98815.84;5071304;28;20504;-79
2023/04/09 07:25:27;;;;;;;11.40;9.30;;;;;;;9.83;85.89;98823.28;5070563;28;20207;-79
2023/04/09 07:27:53;;;;;;;11.50;9.27;;;;;;;10.00;83.43;98814.41;5071537;28;20208;-79
2023/04/09 07:30:21;;;;;;;12.90;9.33;;;;;;;10.03;82.34;98817.75;5070351;28;21002;-78
2023/04/09 07:32:48;;;;;;;11.63;9.17;;;;;;;10.04;84.08;98818.63;5072511;28;20279;-79
2023/04/09 07:35:14;;;;;;;11.37;9.30;;;;;;;10.04;83.08;98815.97;5072297;28;20235;-80
2023/04/09 07:37:41;;;;;;;9.67;8.63;;;;;;;10.13;82.62;98812.81;5072421;28;20211;-79
2023/04/09 07:40:08;;;;;;;9.93;7.57;;;;;;;10.14;81.06;98822.44;5071698;28;20211;-79
2023/04/09 07:42:37;;;;;;;11.47;9.43;;;;;;;10.44;83.20;98836.53;5072161;28;20232;-81
2023/04/09 07:45:04;;;;;;;10.60;8.43;;;;;;;10.75;80.80;98833.81;5072126;28;20205;-80
2023/04/09 07:47:32;;;;;;;11.13;8.63;;;;;;;10.96;78.15;98827.28;5072309;28;20218;-77
2023/04/09 07:49:58;;;;;;;10.97;8.87;;;;;;;11.09;78.55;98822.94;5071608;28;20240;-77
2023/04/09 07:52:25;;;;;;;11.20;8.60;;;;;;;11.15;76.32;98814.63;5071942;28;20227;-76
2023/04/09 07:54:52;;;;;;;11.27;8.40;;;;;;;11.02;74.98;98821.63;5072124;28;20237;-82
2023/04/09 07:57:20;;;;;;;11.20;9.10;;;;;;;10.94;78.32;98839.75;5071838;28;20238;-76
2023/04/09 07:59:46;;;;;;;11.53;9.60;;;;;;;11.11;81.36;98852.78;5071183;28;20673;-78
2023/04/09 08:02:13;;;;;;;11.33;8.93;;;;;;;11.40;78.93;98838.66;5071981;28;20230;-80
2023/04/09 08:04:41;;;;;;;11.27;9.20;;;;;;;11.71;77.50;98826.13;5072105;28;20207;-82
2023/04/09 08:07:07;;;;;;;10.70;8.80;;;;;;;11.77;72.41;98816.91;5071863;28;20758;-80
2023/04/09 08:09:34;;;;;;;9.47;7.60;;;;;;;11.49;68.77;98798.41;5070654;28;20222;-82
2023/04/09 08:14:28;;;;;;;10.40;8.03;;;;;;;10.87;72.45;98828.66;5049993;28;20223;-78
2023/04/09 08:16:55;;;;;;;10.57;8.47;;;;;;;10.88;72.37;98824.25;5051716;28;20586;-81
2023/04/09 08:19:21;;;;;;;10.27;7.93;;;;;;;10.88;72.18;98826.88;5050610;28;20220;-80
2023/04/09 08:21:49;;;;;;;8.30;6.90;;;;;;;11.15;69.51;98806.69;5051551;28;20242;-80
2023/04/09 08:24:17;;;;;;;8.00;7.10;;;;;;;11.31;68.08;98804.84;5031385;28;20212;-80
2023/04/09 08:26:43;;;;;;;7.93;6.70;;;;;;;11.45;68.55;98807.47;5031304;28;20679;-81
2023/04/09 08:29:12;;;;;;;7.70;6.90;;;;;;;11.64;68.40;98810.69;5031151;28;20231;-81
2023/04/09 08:31:39;;;;;;;8.10;7.00;;;;;;;11.71;66.04;98791.69;5031280;28;20217;-82
2023/04/09 08:34:06;;;;;;;7.93;6.90;;;;;;;11.77;64.75;98798.38;5031157;28;20341;-81
2023/04/09 08:36:34;;;;;;;8.13;6.83;;;;;;;11.78;63.11;98787.69;5031365;28;20238;-81
2023/04/09 08:39:02;;;;;;;8.47;7.00;;;;;;;11.78;63.82;98786.84;5030599;28;20620;-81
2023/04/09 08:41:29;;;;;;;9.33;6.80;;;;;;;12.05;67.11;98819.53;5030274;28;20210;-78
2023/04/09 08:43:56;;;;;;;9.33;7.23;;;;;;;12.27;65.11;98807.44;5030824;28;20282;-78
2023/04/09 08:46:24;;;;;;;8.27;6.90;;;;;;;12.37;62.37;98794.44;5030780;28;20259;-78
2023/04/09 08:48:52;;;;;;;7.80;6.77;;;;;;;12.41;62.08;98786.16;5030800;28;20208;-78
2023/04/09 08:51:20;;;;;;;7.83;6.93;;;;;;;12.65;62.65;98796.97;5030153;28;20659;-78
2023/04/09 08:53:49;;;;;;;9.37;7.83;;;;;;;12.70;62.87;98800.13;5030583;28;20238;-76
2023/04/09 08:56:17;;;;;;;9.25;8.25;;;;;;;12.75;63.48;98809.50;5030066;28;20494;-79
2023/04/09 08:58:44;;;;;;;8.63;7.53;;;;;;;12.86;62.33;98806.09;5030984;28;20209;-77
2023/04/09 09:01:21;;;;;;;8.53;7.37;;;;;;;12.92;60.59;98784.47;5026616;28;20219;-83
2023/04/09 09:03:56;;;;;;;7.73;6.80;;;;;;;12.99;60.14;98789.28;5029956;28;20317;-83
2023/04/09 09:06:24;;;;;;;8.83;6.57;;;;;;;13.17;60.16;98800.44;5030251;28;20658;-83
2023/04/09 09:09:01;;;;;;;6.80;6.10;;;;;;;13.37;57.38;98784.81;5029511;28;20208;-83
2023/04/09 09:11:30;;;;;;;6.60;5.83;;;;;;;13.55;57.71;98787.97;5029503;28;20212;-83
2023/04/09 09:14:04;;;;;;;7.27;6.47;;;;;;;13.61;55.78;98763.63;5029717;28;20650;-83
2023/04/09 09:16:33;;;;;;;6.43;5.80;;;;;;;13.60;54.92;98768.13;5029507;28;20212;-83
2023/04/09 09:19:00;;;;;;;8.80;7.03;;;;;;;13.57;55.94;98778.13;5030397;28;20287;-83
2023/04/09 09:21:28;;;;;;;9.27;6.97;;;;;;;13.64;57.21;98795.31;5029998;28;20208;-84
2023/04/09 09:23:56;;;;;;;7.07;6.17;;;;;;;13.81;55.11;98763.91;5032917;28;20283;-84
2023/04/09 09:26:24;;;;;;;6.03;5.43;;;;;;;13.80;54.73;98756.91;5034098;28;20344;-82
2023/04/09 09:28:52;;;;;;;7.30;6.53;;;;;;;13.79;55.17;98767.63;5033938;28;20225;-82
2023/04/09 09:31:20;;;;;;;7.43;6.20;;;;;;;13.64;54.95;98758.97;5031800;28;20216;-83
2023/04/09 09:33:48;;;;;;;6.93;6.00;;;;;;;13.70;54.59;98763.00;5032369;28;20226;-83
2023/04/09 09:36:15;;;;;;;7.80;6.40;;;;;;;13.72;52.39;98750.44;5033852;28;20705;-84
2023/04/09 09:38:53;;;;;;;6.13;5.50;;;;;;;13.78;54.36;98771.25;5031711;28;20213;-85
2023/04/09 09:41:19;;;;;;;7.40;6.17;;;;;;;13.77;51.98;98749.19;5030930;28;20208;-83
2023/04/09 09:43:46;;;;;;;6.43;5.83;;;;;;;13.90;54.13;98770.38;5031987;28;20316;-81
2023/04/09 09:46:15;;;;;;;6.67;5.73;;;;;;;13.89;52.54;98755.41;5033989;28;20215;-79
2023/04/09 09:48:42;;;;;;;6.83;5.90;;;;;;;13.78;51.21;98750.88;5032960;28;20214;-80
2023/04/09 09:51:10;;;;;;;6.80;6.10;;;;;;;13.82;55.30;98783.38;5030537;28;20220;-79
2023/04/09 09:53:37;;;;;;;6.80;6.10;;;;;;;14.04;53.05;98762.25;5031336;28;20224;-80
2023/04/09 09:56:05;;;;;;;5.80;5.03;;;;;;;14.04;51.35;98743.63;5033140;28;20258;-81
2023/04/09 09:58:36;;;;;;;6.90;5.80;;;;;;;13.90;51.90;98746.47;5033725;28;20216;-80
2023/04/09 10:01:08;;;;;;;5.13;4.60;;;;;;;13.99;50.28;98732.53;5031179;28;20210;-80
2023/04/09 10:03:38;;;;;;;5.10;4.60;;;;;;;13.76;49.78;98733.34;5031667;28;20324;-81
2023/04/09 10:06:05;;;;;;;6.23;4.90;;;;;;;13.57;51.17;98741.75;5032621;28;20208;-80
2023/04/09 10:08:34;;;;;;;6.27;5.37;;;;;;;13.65;52.51;98760.69;5034347;28;20209;-81
2023/04/09 10:11:02;;;;;;;6.80;6.00;;;;;;;13.60;51.87;98746.00;5033169;28;20704;-81
2023/04/09 10:13:32;;;;;;;6.83;6.10;;;;;;;13.65;54.21;98781.94;5033880;28;20323;-80
2023/04/09 10:16:00;;;;;;;7.20;6.47;;;;;;;13.78;53.68;98771.25;5033976;28;20242;-80
2023/04/09 10:18:27;;;;;;;7.00;6.20;;;;;;;13.61;51.53;98755.69;5033919;28;20213;-78
2023/04/09 10:20:58;;;;;;;7.73;6.93;;;;;;;13.40;52.11;98754.56;5033155;28;20215;-77
2023/04/09 10:23:33;;;;;;;7.60;6.80;;;;;;;13.32;53.52;98764.88;5033512;28;20725;-77
2023/04/09 10:26:00;;;;;;;6.10;5.43;;;;;;;13.19;53.24;98754.25;5033907;28;20204;-77
2023/04/09 10:28:26;;;;;;;5.30;4.80;;;;;;;13.19;51.72;98740.13;5033804;28;20210;-77
2023/04/09 10:30:54;;;;;;;4.27;3.87;;;;;;;13.39;49.29;98715.69;5033145;28;20220;-84
2023/04/09 10:33:25;;;;;;;4.17;3.70;;;;;;;13.33;47.45;98697.53;5032817;28;20233;-84
2023/04/09 10:35:51;;;;;;;4.33;3.70;;;;;;;13.38;48.70;98719.31;5033391;28;20264;-80
2023/04/09 10:38:33;;;;;;;4.23;3.70;;;;;;;13.20;46.14;98686.09;5033390;28;20217;-76
2023/04/09 10:41:06;;;;;;;3.87;3.47;;;;;;;13.01;46.68;98689.19;5033068;28;20213;-81
2023/04/09 10:43:34;;;;;;;4.87;4.37;;;;;;;12.86;49.84;98731.81;5033568;28;20629;-80
2023/04/09 10:46:01;;;;;;;6.77;4.80;;;;;;;12.74;49.97;98724.72;5033296;28;20267;-81
2023/04/09 10:48:32;;;;;;;5.40;4.70;;;;;;;12.75;48.86;98713.13;5033599;28;20646;-81
2023/04/09 10:50:58;;;;;;;4.40;4.00;;;;;;;12.82;47.84;98706.44;5032894;28;20208;-80
2023/04/09 10:53:26;;;;;;;4.83;4.10;;;;;;;12.95;47.42;98697.59;5033656;28;20607;-81
2023/04/09 10:55:54;;;;;;;4.40;3.90;;;;;;;13.17;47.36;98704.88;5033793;28;20303;-80
2023/04/09 10:58:20;;;;;;;4.60;4.20;;;;;;;13.16;48.00;98703.19;5033485;28;20208;-81
2023/04/09 11:00:49;;;;;;;5.63;5.10;;;;;;;13.10;50.28;98720.41;5032883;28;20211;-81
2023/04/09 11:03:24;;;;;;;5.20;4.70;;;;;;;13.03;49.55;98719.13;5033459;28;20233;-81
2023/04/09 11:05:59;;;;;;;4.90;4.33;;;;;;;12.85;48.76;98706.25;5030872;28;20212;-81
2023/04/09 11:08:30;;;;;;;5.30;4.80;;;;;;;12.96;50.65;98727.63;5030833;28;20219;-81
2023/04/09 11:10:59;;;;;;;4.73;4.27;;;;;;;12.99;48.42;98703.53;5029733;28;20283;-81
2023/04/09 11:13:27;;;;;;;4.50;4.10;;;;;;;12.95;49.13;98688.75;5032668;28;20323;-81
2023/04/09 11:15:55;;;;;;;4.90;4.50;;;;;;;13.05;48.94;98703.94;5033068;28;20240;-81
2023/04/09 11:18:24;;;;;;;5.30;4.80;;;;;;;13.29;49.51;98714.63;5033256;28;20268;-81
2023/04/09 11:20:54;;;;;;;4.83;4.33;;;;;;;13.54;49.17;98701.31;5032507;28;20209;-81
2023/04/09 11:23:21;;;;;;;4.90;4.40;;;;;;;13.78;49.65;98710.16;5032895;28;20233;-81
2023/04/09 11:25:51;;;;;;;4.80;4.30;;;;;;;14.13;49.44;98711.06;5032744;28;20232;-81